sensor_id;sensor_type;location;lat;lon;timestamp;P1;durP1;ratioP1;P2;durP2;ratioP2
8337;SDS011;4206;48.634;9.516;2023-02-11T00:01:48;39.07;;;17.07;;
8337;SDS011;4206;48.634;9.516;2023-02-11T00:04:13;39.90;;;16.07;;
8337;SDS011;4206;48.634;9.516;2023-02-11T00:06:39;29.23;;;14.33;;
8337;SDS011;4206;48.634;9.516;2023-02-11T00:09:05;34.50;;;15.93;;
8337;SDS011;4206;48.634;9.516;2023-02-11T00:11:31;34.17;;;15.60;;
8337;SDS011;4206;48.634;9.516;2023-02-11T00:14:01;39.27;;;15.77;;
8337;SDS011;4206;48.634;9.516;2023-02-11T00:16:29;34.17;;;15.77;;
8337;SDS011;4206;48.634;9.516;2023-02-11T00:18:57;30.00;;;13.63;;
8337;SDS011;4206;48.634;9.516;2023-02-11T00:21:27;30.60;;;14.30;;
8337;SDS011;4206;48.634;9.516;2023-02-11T00:23:53;33.57;;;14.73;;
8337;SDS011;4206;48.634;9.516;2023-02-11T00:26:22;35.63;;;14.97;;
8337;SDS011;4206;48.634;9.516;2023-02-11T00:28:49;31.57;;;13.90;;
8337;SDS011;4206;48.634;9.516;2023-02-11T00:31:15;31.90;;;14.73;;
8337;SDS011;4206;48.634;9.516;2023-02-11T00:33:42;33.90;;;15.37;;
8337;SDS011;4206;48.634;9.516;2023-02-11T00:36:10;33.90;;;14.60;;
8337;SDS011;4206;48.634;9.516;2023-02-11T00:38:45;26.60;;;14.20;;
8337;SDS011;4206;48.634;9.516;2023-02-11T00:41:12;29.70;;;14.50;;
8337;SDS011;4206;48.634;9.516;2023-02-11T00:43:38;33.07;;;14.30;;
8337;SDS011;4206;48.634;9.516;2023-02-11T00:46:04;40.33;;;14.07;;
8337;SDS011;4206;48.634;9.516;2023-02-11T00:48:31;28.03;;;12.90;;
8337;SDS011;4206;48.634;9.516;2023-02-11T00:50:57;29.50;;;13.53;;
8337;SDS011;4206;48.634;9.516;2023-02-11T00:53:23;39.80;;;17.10;;
8337;SDS011;4206;48.634;9.516;2023-02-11T00:55:48;31.53;;;14.83;;
8337;SDS011;4206;48.634;9.516;2023-02-11T00:58:14;35.97;;;15.33;;
8337;SDS011;4206;48.634;9.516;2023-02-11T01:00:39;29.67;;;14.33;;
8337;SDS011;4206;48.634;9.516;2023-02-11T01:03:05;30.13;;;14.60;;
8337;SDS011;4206;48.634;9.516;2023-02-11T01:05:31;32.53;;;14.30;;
8337;SDS011;4206;48.634;9.516;2023-02-11T01:07:57;35.63;;;15.33;;
8337;SDS011;4206;48.634;9.516;2023-02-11T01:10:22;33.07;;;15.17;;
8337;SDS011;4206;48.634;9.516;2023-02-11T01:12:48;38.03;;;15.60;;
8337;SDS011;4206;48.634;9.516;2023-02-11T01:15:15;39.50;;;16.07;;
8337;SDS011;4206;48.634;9.516;2023-02-11T01:17:42;34.27;;;15.07;;
8337;SDS011;4206;48.634;9.516;2023-02-11T01:20:11;39.97;;;15.53;;
8337;SDS011;4206;48.634;9.516;2023-02-11T01:22:40;34.37;;;14.20;;
8337;SDS011;4206;48.634;9.516;2023-02-11T01:25:06;38.73;;;16.43;;
8337;SDS011;4206;48.634;9.516;2023-02-11T01:27:32;36.77;;;14.70;;
8337;SDS011;4206;48.634;9.516;2023-02-11T01:29:58;31.90;;;14.13;;
8337;SDS011;4206;48.634;9.516;2023-02-11T01:32:24;40.67;;;16.30;;
8337;SDS011;4206;48.634;9.516;2023-02-11T01:34:49;30.27;;;14.23;;
8337;SDS011;4206;48.634;9.516;2023-02-11T01:37:15;33.70;;;14.30;;
8337;SDS011;4206;48.634;9.516;2023-02-11T01:39:41;32.20;;;15.00;;
8337;SDS011;4206;48.634;9.516;2023-02-11T01:42:06;35.53;;;15.37;;
8337;SDS011;4206;48.634;9.516;2023-02-11T01:44:36;36.40;;;16.30;;
8337;SDS011;4206;48.634;9.516;2023-02-11T01:47:04;33.30;;;15.03;;
8337;SDS011;4206;48.634;9.516;2023-02-11T01:49:31;34.03;;;15.10;;
8337;SDS011;4206;48.634;9.516;2023-02-11T01:54:29;37.70;;;15.30;;
8337;SDS011;4206;48.634;9.516;2023-02-11T01:57:17;35.67;;;16.50;;
8337;SDS011;4206;48.634;9.516;2023-02-11T02:02:15;38.40;;;15.67;;
8337;SDS011;4206;48.634;9.516;2023-02-11T02:04:54;33.00;;;15.40;;
8337;SDS011;4206;48.634;9.516;2023-02-11T02:07:32;34.40;;;14.80;;
8337;SDS011;4206;48.634;9.516;2023-02-11T02:10:04;36.40;;;15.97;;
8337;SDS011;4206;48.634;9.516;2023-02-11T02:12:33;38.53;;;15.20;;
8337;SDS011;4206;48.634;9.516;2023-02-11T02:15:32;34.33;;;15.00;;
8337;SDS011;4206;48.634;9.516;2023-02-11T02:26:12;41.43;;;15.97;;
8337;SDS011;4206;48.634;9.516;2023-02-11T02:37:31;31.57;;;14.77;;
8337;SDS011;4206;48.634;9.516;2023-02-11T02:40:02;37.97;;;15.67;;
8337;SDS011;4206;48.634;9.516;2023-02-11T02:42:39;37.47;;;15.87;;
8337;SDS011;4206;48.634;9.516;2023-02-11T02:45:06;37.77;;;15.60;;
8337;SDS011;4206;48.634;9.516;2023-02-11T02:47:33;31.43;;;13.97;;
8337;SDS011;4206;48.634;9.516;2023-02-11T02:49:58;33.77;;;14.90;;
8337;SDS011;4206;48.634;9.516;2023-02-11T02:52:28;31.33;;;14.37;;
8337;SDS011;4206;48.634;9.516;2023-02-11T03:11:44;32.97;;;15.10;;
8337;SDS011;4206;48.634;9.516;2023-02-11T03:14:10;31.90;;;14.27;;
8337;SDS011;4206;48.634;9.516;2023-02-11T03:16:39;36.67;;;16.33;;
8337;SDS011;4206;48.634;9.516;2023-02-11T03:19:14;40.10;;;16.20;;
8337;SDS011;4206;48.634;9.516;2023-02-11T03:21:44;34.40;;;14.57;;
8337;SDS011;4206;48.634;9.516;2023-02-11T03:24:14;29.87;;;14.27;;
8337;SDS011;4206;48.634;9.516;2023-02-11T03:26:47;30.60;;;14.37;;
8337;SDS011;4206;48.634;9.516;2023-02-11T03:31:55;36.80;;;14.30;;
8337;SDS011;4206;48.634;9.516;2023-02-11T03:34:45;35.00;;;15.67;;
8337;SDS011;4206;48.634;9.516;2023-02-11T03:37:17;37.27;;;14.80;;
8337;SDS011;4206;48.634;9.516;2023-02-11T03:39:49;33.13;;;14.63;;
8337;SDS011;4206;48.634;9.516;2023-02-11T03:42:18;37.17;;;16.10;;
8337;SDS011;4206;48.634;9.516;2023-02-11T03:44:48;34.70;;;15.30;;
8337;SDS011;4206;48.634;9.516;2023-02-11T03:47:21;29.10;;;14.50;;
8337;SDS011;4206;48.634;9.516;2023-02-11T03:49:49;39.70;;;16.93;;
8337;SDS011;4206;48.634;9.516;2023-02-11T03:52:17;40.53;;;16.87;;
8337;SDS011;4206;48.634;9.516;2023-02-11T03:54:46;37.60;;;15.47;;
8337;SDS011;4206;48.634;9.516;2023-02-11T03:57:15;31.70;;;15.27;;
8337;SDS011;4206;48.634;9.516;2023-02-11T04:02:17;32.20;;;15.83;;
8337;SDS011;4206;48.634;9.516;2023-02-11T04:04:43;33.60;;;14.77;;
8337;SDS011;4206;48.634;9.516;2023-02-11T04:07:10;36.47;;;15.63;;
8337;SDS011;4206;48.634;9.516;2023-02-11T04:09:36;33.53;;;16.10;;
8337;SDS011;4206;48.634;9.516;2023-02-11T04:12:02;35.07;;;15.57;;
8337;SDS011;4206;48.634;9.516;2023-02-11T04:14:28;39.67;;;16.80;;
8337;SDS011;4206;48.634;9.516;2023-02-11T04:16:54;36.73;;;16.63;;
8337;SDS011;4206;48.634;9.516;2023-02-11T04:19:19;32.47;;;14.80;;
8337;SDS011;4206;48.634;9.516;2023-02-11T04:21:45;41.50;;;16.73;;
8337;SDS011;4206;48.634;9.516;2023-02-11T04:24:11;30.37;;;14.80;;
8337;SDS011;4206;48.634;9.516;2023-02-11T04:26:37;40.27;;;17.17;;
8337;SDS011;4206;48.634;9.516;2023-02-11T04:29:02;34.13;;;16.27;;
8337;SDS011;4206;48.634;9.516;2023-02-11T04:31:28;35.90;;;16.17;;
8337;SDS011;4206;48.634;9.516;2023-02-11T04:33:54;30.27;;;15.10;;
8337;SDS011;4206;48.634;9.516;2023-02-11T04:36:20;35.13;;;16.50;;
8337;SDS011;4206;48.634;9.516;2023-02-11T04:38:46;32.70;;;15.17;;
8337;SDS011;4206;48.634;9.516;2023-02-11T04:41:11;36.13;;;15.80;;
8337;SDS011;4206;48.634;9.516;2023-02-11T04:43:37;38.30;;;16.30;;
8337;SDS011;4206;48.634;9.516;2023-02-11T04:46:03;32.50;;;15.80;;
8337;SDS011;4206;48.634;9.516;2023-02-11T04:48:29;38.20;;;15.10;;
8337;SDS011;4206;48.634;9.516;2023-02-11T04:50:54;33.70;;;16.43;;
8337;SDS011;4206;48.634;9.516;2023-02-11T04:53:20;36.97;;;15.80;;
8337;SDS011;4206;48.634;9.516;2023-02-11T04:55:49;32.53;;;15.80;;
8337;SDS011;4206;48.634;9.516;2023-02-11T04:58:15;30.50;;;14.40;;
8337;SDS011;4206;48.634;9.516;2023-02-11T05:00:41;31.50;;;15.10;;
8337;SDS011;4206;48.634;9.516;2023-02-11T05:03:07;35.97;;;16.33;;
8337;SDS011;4206;48.634;9.516;2023-02-11T05:05:32;35.53;;;17.07;;
8337;SDS011;4206;48.634;9.516;2023-02-11T05:07:58;34.77;;;17.10;;
8337;SDS011;4206;48.634;9.516;2023-02-11T05:10:23;34.97;;;15.57;;
8337;SDS011;4206;48.634;9.516;2023-02-11T05:12:49;37.07;;;17.43;;
8337;SDS011;4206;48.634;9.516;2023-02-11T05:15:15;33.70;;;17.60;;
8337;SDS011;4206;48.634;9.516;2023-02-11T05:17:40;36.30;;;17.70;;
8337;SDS011;4206;48.634;9.516;2023-02-11T05:20:06;33.30;;;17.20;;
8337;SDS011;4206;48.634;9.516;2023-02-11T05:22:32;32.97;;;16.40;;
8337;SDS011;4206;48.634;9.516;2023-02-11T05:24:58;32.87;;;15.80;;
8337;SDS011;4206;48.634;9.516;2023-02-11T05:27:23;35.90;;;17.73;;
8337;SDS011;4206;48.634;9.516;2023-02-11T05:29:49;32.30;;;14.90;;
8337;SDS011;4206;48.634;9.516;2023-02-11T05:32:15;36.70;;;18.50;;
8337;SDS011;4206;48.634;9.516;2023-02-11T05:34:40;35.63;;;16.47;;
8337;SDS011;4206;48.634;9.516;2023-02-11T05:37:06;37.07;;;17.80;;
8337;SDS011;4206;48.634;9.516;2023-02-11T05:39:32;38.90;;;17.53;;
8337;SDS011;4206;48.634;9.516;2023-02-11T05:41:57;34.87;;;16.40;;
8337;SDS011;4206;48.634;9.516;2023-02-11T05:44:23;35.20;;;16.90;;
8337;SDS011;4206;48.634;9.516;2023-02-11T05:46:48;41.63;;;17.33;;
8337;SDS011;4206;48.634;9.516;2023-02-11T05:49:15;38.03;;;17.30;;
8337;SDS011;4206;48.634;9.516;2023-02-11T05:51:41;30.67;;;16.17;;
8337;SDS011;4206;48.634;9.516;2023-02-11T05:54:07;34.20;;;16.57;;
8337;SDS011;4206;48.634;9.516;2023-02-11T05:56:32;32.90;;;15.60;;
8337;SDS011;4206;48.634;9.516;2023-02-11T05:58:58;31.33;;;15.63;;
8337;SDS011;4206;48.634;9.516;2023-02-11T06:01:24;34.00;;;16.20;;
8337;SDS011;4206;48.634;9.516;2023-02-11T06:03:50;36.07;;;18.07;;
8337;SDS011;4206;48.634;9.516;2023-02-11T06:06:16;39.63;;;18.10;;
8337;SDS011;4206;48.634;9.516;2023-02-11T06:08:41;37.60;;;17.90;;
8337;SDS011;4206;48.634;9.516;2023-02-11T06:11:07;37.47;;;18.27;;
8337;SDS011;4206;48.634;9.516;2023-02-11T06:13:34;40.97;;;18.63;;
8337;SDS011;4206;48.634;9.516;2023-02-11T06:16:00;42.40;;;18.97;;
8337;SDS011;4206;48.634;9.516;2023-02-11T06:18:27;41.30;;;18.63;;
8337;SDS011;4206;48.634;9.516;2023-02-11T06:20:53;36.97;;;18.57;;
8337;SDS011;4206;48.634;9.516;2023-02-11T06:23:19;35.97;;;18.13;;
8337;SDS011;4206;48.634;9.516;2023-02-11T06:25:46;37.93;;;17.70;;
8337;SDS011;4206;48.634;9.516;2023-02-11T06:28:11;38.87;;;19.57;;
8337;SDS011;4206;48.634;9.516;2023-02-11T06:30:37;41.50;;;19.00;;
8337;SDS011;4206;48.634;9.516;2023-02-11T06:33:03;39.70;;;18.97;;
8337;SDS011;4206;48.634;9.516;2023-02-11T06:35:28;35.50;;;18.30;;
8337;SDS011;4206;48.634;9.516;2023-02-11T06:37:54;39.67;;;19.07;;
8337;SDS011;4206;48.634;9.516;2023-02-11T06:40:20;40.77;;;19.33;;
8337;SDS011;4206;48.634;9.516;2023-02-11T06:42:46;41.00;;;20.60;;
8337;SDS011;4206;48.634;9.516;2023-02-11T06:45:11;41.83;;;18.37;;
8337;SDS011;4206;48.634;9.516;2023-02-11T06:47:38;37.33;;;17.93;;
8337;SDS011;4206;48.634;9.516;2023-02-11T06:50:05;32.83;;;17.80;;
8337;SDS011;4206;48.634;9.516;2023-02-11T06:52:32;33.63;;;17.63;;
8337;SDS011;4206;48.634;9.516;2023-02-11T06:54:58;42.20;;;19.80;;
8337;SDS011;4206;48.634;9.516;2023-02-11T06:57:24;47.67;;;22.47;;
8337;SDS011;4206;48.634;9.516;2023-02-11T06:59:50;47.00;;;22.47;;
8337;SDS011;4206;48.634;9.516;2023-02-11T07:02:16;66.83;;;28.03;;
8337;SDS011;4206;48.634;9.516;2023-02-11T07:04:41;39.83;;;20.90;;
8337;SDS011;4206;48.634;9.516;2023-02-11T07:07:07;35.67;;;20.03;;
8337;SDS011;4206;48.634;9.516;2023-02-11T07:09:33;36.40;;;19.07;;
8337;SDS011;4206;48.634;9.516;2023-02-11T07:11:58;40.70;;;19.40;;
8337;SDS011;4206;48.634;9.516;2023-02-11T07:14:24;43.30;;;20.87;;
8337;SDS011;4206;48.634;9.516;2023-02-11T07:16:50;43.13;;;21.63;;
8337;SDS011;4206;48.634;9.516;2023-02-11T07:19:15;47.00;;;23.33;;
8337;SDS011;4206;48.634;9.516;2023-02-11T07:21:41;45.60;;;22.43;;
8337;SDS011;4206;48.634;9.516;2023-02-11T07:24:07;41.07;;;21.17;;
8337;SDS011;4206;48.634;9.516;2023-02-11T07:26:33;45.97;;;21.97;;
8337;SDS011;4206;48.634;9.516;2023-02-11T07:28:59;51.10;;;26.30;;
8337;SDS011;4206;48.634;9.516;2023-02-11T07:31:26;51.13;;;26.73;;
8337;SDS011;4206;48.634;9.516;2023-02-11T07:33:55;55.07;;;26.90;;
8337;SDS011;4206;48.634;9.516;2023-02-11T07:36:23;48.20;;;24.93;;
8337;SDS011;4206;48.634;9.516;2023-02-11T07:38:49;47.80;;;23.10;;
8337;SDS011;4206;48.634;9.516;2023-02-11T07:41:16;46.50;;;23.57;;
8337;SDS011;4206;48.634;9.516;2023-02-11T07:43:44;46.67;;;23.70;;
8337;SDS011;4206;48.634;9.516;2023-02-11T07:46:14;50.77;;;25.17;;
8337;SDS011;4206;48.634;9.516;2023-02-11T07:48:45;49.00;;;24.30;;
8337;SDS011;4206;48.634;9.516;2023-02-11T07:51:12;44.23;;;23.77;;
8337;SDS011;4206;48.634;9.516;2023-02-11T07:53:41;42.93;;;22.90;;
8337;SDS011;4206;48.634;9.516;2023-02-11T07:56:07;50.97;;;24.77;;
8337;SDS011;4206;48.634;9.516;2023-02-11T07:58:33;50.03;;;24.37;;
8337;SDS011;4206;48.634;9.516;2023-02-11T08:01:03;46.77;;;22.27;;
8337;SDS011;4206;48.634;9.516;2023-02-11T08:03:31;42.97;;;21.57;;
8337;SDS011;4206;48.634;9.516;2023-02-11T08:05:59;42.43;;;20.90;;
8337;SDS011;4206;48.634;9.516;2023-02-11T08:08:31;43.67;;;21.37;;
8337;SDS011;4206;48.634;9.516;2023-02-11T08:10:56;43.03;;;22.23;;
8337;SDS011;4206;48.634;9.516;2023-02-11T08:13:22;42.50;;;22.67;;
8337;SDS011;4206;48.634;9.516;2023-02-11T08:15:48;41.33;;;22.23;;
8337;SDS011;4206;48.634;9.516;2023-02-11T08:18:13;32.23;;;18.93;;
8337;SDS011;4206;48.634;9.516;2023-02-11T08:20:39;35.83;;;20.17;;
8337;SDS011;4206;48.634;9.516;2023-02-11T08:23:07;40.13;;;21.40;;
8337;SDS011;4206;48.634;9.516;2023-02-11T08:25:33;33.13;;;18.17;;
8337;SDS011;4206;48.634;9.516;2023-02-11T08:27:59;32.03;;;18.80;;
8337;SDS011;4206;48.634;9.516;2023-02-11T08:30:24;33.53;;;18.67;;
8337;SDS011;4206;48.634;9.516;2023-02-11T08:32:50;35.00;;;19.13;;
8337;SDS011;4206;48.634;9.516;2023-02-11T08:35:15;41.43;;;20.23;;
8337;SDS011;4206;48.634;9.516;2023-02-11T08:37:41;36.07;;;17.93;;
8337;SDS011;4206;48.634;9.516;2023-02-11T08:40:07;38.10;;;19.70;;
8337;SDS011;4206;48.634;9.516;2023-02-11T08:42:33;44.67;;;21.80;;
8337;SDS011;4206;48.634;9.516;2023-02-11T08:44:59;47.93;;;20.63;;
8337;SDS011;4206;48.634;9.516;2023-02-11T08:47:24;43.80;;;20.70;;
8337;SDS011;4206;48.634;9.516;2023-02-11T08:49:50;39.03;;;20.07;;
8337;SDS011;4206;48.634;9.516;2023-02-11T08:52:15;36.37;;;20.70;;
8337;SDS011;4206;48.634;9.516;2023-02-11T08:54:41;34.53;;;19.57;;
8337;SDS011;4206;48.634;9.516;2023-02-11T08:57:07;29.50;;;17.23;;
8337;SDS011;4206;48.634;9.516;2023-02-11T08:59:32;33.40;;;18.77;;
8337;SDS011;4206;48.634;9.516;2023-02-11T09:01:58;35.33;;;19.77;;
8337;SDS011;4206;48.634;9.516;2023-02-11T09:04:24;33.90;;;17.90;;
8337;SDS011;4206;48.634;9.516;2023-02-11T09:06:49;31.70;;;19.20;;
8337;SDS011;4206;48.634;9.516;2023-02-11T09:09:15;33.73;;;17.93;;
8337;SDS011;4206;48.634;9.516;2023-02-11T09:11:42;30.43;;;17.80;;
8337;SDS011;4206;48.634;9.516;2023-02-11T09:14:10;33.40;;;17.90;;
8337;SDS011;4206;48.634;9.516;2023-02-11T09:16:43;33.17;;;18.73;;
8337;SDS011;4206;48.634;9.516;2023-02-11T09:19:09;35.57;;;18.03;;
8337;SDS011;4206;48.634;9.516;2023-02-11T09:21:35;33.37;;;19.80;;
8337;SDS011;4206;48.634;9.516;2023-02-11T09:24:00;30.03;;;17.77;;
8337;SDS011;4206;48.634;9.516;2023-02-11T09:26:30;33.17;;;17.03;;
8337;SDS011;4206;48.634;9.516;2023-02-11T09:28:58;37.67;;;21.17;;
8337;SDS011;4206;48.634;9.516;2023-02-11T09:31:25;44.13;;;22.43;;
8337;SDS011;4206;48.634;9.516;2023-02-11T09:33:53;44.50;;;21.70;;
8337;SDS011;4206;48.634;9.516;2023-02-11T09:36:22;36.53;;;21.10;;
8337;SDS011;4206;48.634;9.516;2023-02-11T09:38:50;36.30;;;18.47;;
8337;SDS011;4206;48.634;9.516;2023-02-11T09:41:22;40.90;;;17.07;;
8337;SDS011;4206;48.634;9.516;2023-02-11T09:43:59;35.50;;;17.03;;
8337;SDS011;4206;48.634;9.516;2023-02-11T09:46:34;31.77;;;18.57;;
8337;SDS011;4206;48.634;9.516;2023-02-11T09:49:04;29.70;;;18.37;;
8337;SDS011;4206;48.634;9.516;2023-02-11T09:54:00;28.23;;;16.73;;
8337;SDS011;4206;48.634;9.516;2023-02-11T09:56:28;26.63;;;16.67;;
8337;SDS011;4206;48.634;9.516;2023-02-11T09:58:53;31.40;;;17.47;;
8337;SDS011;4206;48.634;9.516;2023-02-11T10:04:06;26.70;;;16.63;;
8337;SDS011;4206;48.634;9.516;2023-02-11T10:06:54;26.20;;;16.60;;
8337;SDS011;4206;48.634;9.516;2023-02-11T10:23:15;31.30;;;17.30;;
8337;SDS011;4206;48.634;9.516;2023-02-11T10:25:48;26.40;;;16.57;;
8337;SDS011;4206;48.634;9.516;2023-02-11T10:28:19;33.30;;;17.03;;
8337;SDS011;4206;48.634;9.516;2023-02-11T10:33:35;38.37;;;17.97;;
8337;SDS011;4206;48.634;9.516;2023-02-11T10:36:11;27.77;;;17.13;;
8337;SDS011;4206;48.634;9.516;2023-02-11T10:38:38;32.00;;;18.83;;
8337;SDS011;4206;48.634;9.516;2023-02-11T10:41:04;27.90;;;16.60;;
8337;SDS011;4206;48.634;9.516;2023-02-11T10:43:31;33.20;;;16.23;;
8337;SDS011;4206;48.634;9.516;2023-02-11T10:45:57;26.53;;;15.40;;
8337;SDS011;4206;48.634;9.516;2023-02-11T10:48:39;27.53;;;15.30;;
8337;SDS011;4206;48.634;9.516;2023-02-11T10:51:05;27.03;;;15.10;;
8337;SDS011;4206;48.634;9.516;2023-02-11T10:53:33;25.90;;;16.67;;
8337;SDS011;4206;48.634;9.516;2023-02-11T10:55:59;25.27;;;16.20;;
8337;SDS011;4206;48.634;9.516;2023-02-11T10:58:31;25.43;;;15.33;;
8337;SDS011;4206;48.634;9.516;2023-02-11T11:01:09;31.87;;;16.77;;
8337;SDS011;4206;48.634;9.516;2023-02-11T11:03:37;31.43;;;16.33;;
8337;SDS011;4206;48.634;9.516;2023-02-11T11:06:09;24.13;;;14.70;;
8337;SDS011;4206;48.634;9.516;2023-02-11T11:08:49;22.30;;;14.70;;
8337;SDS011;4206;48.634;9.516;2023-02-11T11:11:16;26.70;;;15.80;;
8337;SDS011;4206;48.634;9.516;2023-02-11T11:13:53;20.47;;;13.70;;
8337;SDS011;4206;48.634;9.516;2023-02-11T11:16:28;21.50;;;14.50;;
8337;SDS011;4206;48.634;9.516;2023-02-11T11:21:46;20.07;;;13.97;;
8337;SDS011;4206;48.634;9.516;2023-02-11T11:24:19;20.90;;;14.77;;
8337;SDS011;4206;48.634;9.516;2023-02-11T11:27:03;21.43;;;15.33;;
8337;SDS011;4206;48.634;9.516;2023-02-11T11:29:37;21.77;;;13.53;;
8337;SDS011;4206;48.634;9.516;2023-02-11T11:32:17;20.93;;;13.10;;
8337;SDS011;4206;48.634;9.516;2023-02-11T11:35:00;25.23;;;14.30;;
8337;SDS011;4206;48.634;9.516;2023-02-11T11:37:33;23.60;;;15.30;;
8337;SDS011;4206;48.634;9.516;2023-02-11T11:40:20;22.47;;;15.23;;
8337;SDS011;4206;48.634;9.516;2023-02-11T11:43:00;19.83;;;13.00;;
8337;SDS011;4206;48.634;9.516;2023-02-11T11:45:42;20.87;;;14.17;;
8337;SDS011;4206;48.634;9.516;2023-02-11T11:48:20;19.90;;;12.30;;
8337;SDS011;4206;48.634;9.516;2023-02-11T11:50:51;19.93;;;13.20;;
8337;SDS011;4206;48.634;9.516;2023-02-11T11:58:38;19.57;;;12.77;;
8337;SDS011;4206;48.634;9.516;2023-02-11T12:30:44;15.83;;;11.23;;
8337;SDS011;4206;48.634;9.516;2023-02-11T12:44:24;14.07;;;9.80;;
8337;SDS011;4206;48.634;9.516;2023-02-11T12:54:57;15.40;;;9.27;;
8337;SDS011;4206;48.634;9.516;2023-02-11T12:58:02;17.63;;;8.87;;
8337;SDS011;4206;48.634;9.516;2023-02-11T13:00:30;13.10;;;8.00;;
8337;SDS011;4206;48.634;9.516;2023-02-11T13:03:11;16.23;;;9.23;;
8337;SDS011;4206;48.634;9.516;2023-02-11T13:05:45;15.10;;;8.40;;
8337;SDS011;4206;48.634;9.516;2023-02-11T13:10:57;13.07;;;8.00;;
8337;SDS011;4206;48.634;9.516;2023-02-11T13:13:34;12.77;;;8.00;;
8337;SDS011;4206;48.634;9.516;2023-02-11T13:16:33;14.23;;;6.23;;
8337;SDS011;4206;48.634;9.516;2023-02-11T13:22:09;9.13;;;5.30;;
8337;SDS011;4206;48.634;9.516;2023-02-11T13:24:58;8.63;;;6.30;;
8337;SDS011;4206;48.634;9.516;2023-02-11T13:27:49;12.83;;;7.13;;
8337;SDS011;4206;48.634;9.516;2023-02-11T13:38:04;17.00;;;7.70;;
8337;SDS011;4206;48.634;9.516;2023-02-11T13:40:41;9.90;;;6.50;;
8337;SDS011;4206;48.634;9.516;2023-02-11T13:43:18;9.67;;;6.10;;
8337;SDS011;4206;48.634;9.516;2023-02-11T13:45:46;14.00;;;7.20;;
8337;SDS011;4206;48.634;9.516;2023-02-11T13:48:29;9.77;;;6.43;;
8337;SDS011;4206;48.634;9.516;2023-02-11T13:50:57;8.20;;;5.57;;
8337;SDS011;4206;48.634;9.516;2023-02-11T13:53:25;12.30;;;7.00;;
8337;SDS011;4206;48.634;9.516;2023-02-11T13:55:53;8.63;;;6.10;;
8337;SDS011;4206;48.634;9.516;2023-02-11T14:01:10;12.27;;;7.93;;
8337;SDS011;4206;48.634;9.516;2023-02-11T14:04:17;12.90;;;8.70;;
8337;SDS011;4206;48.634;9.516;2023-02-11T14:07:25;16.23;;;8.17;;
8337;SDS011;4206;48.634;9.516;2023-02-11T14:16:05;16.73;;;8.70;;
8337;SDS011;4206;48.634;9.516;2023-02-11T14:21:18;14.23;;;8.67;;
8337;SDS011;4206;48.634;9.516;2023-02-11T14:23:48;15.33;;;9.50;;
8337;SDS011;4206;48.634;9.516;2023-02-11T14:28:45;13.60;;;8.90;;
8337;SDS011;4206;48.634;9.516;2023-02-11T14:31:20;15.93;;;9.90;;
8337;SDS011;4206;48.634;9.516;2023-02-11T14:34:19;15.90;;;9.97;;
8337;SDS011;4206;48.634;9.516;2023-02-11T14:39:48;14.77;;;9.43;;
8337;SDS011;4206;48.634;9.516;2023-02-11T14:42:27;15.63;;;9.33;;
8337;SDS011;4206;48.634;9.516;2023-02-11T14:44:55;14.93;;;9.10;;
8337;SDS011;4206;48.634;9.516;2023-02-11T14:47:44;14.30;;;9.60;;
8337;SDS011;4206;48.634;9.516;2023-02-11T14:53:14;21.30;;;9.33;;
8337;SDS011;4206;48.634;9.516;2023-02-11T14:55:43;13.10;;;8.93;;
8337;SDS011;4206;48.634;9.516;2023-02-11T14:58:19;16.17;;;9.00;;
8337;SDS011;4206;48.634;9.516;2023-02-11T15:00:56;11.50;;;8.40;;
8337;SDS011;4206;48.634;9.516;2023-02-11T15:08:39;14.30;;;9.20;;
8337;SDS011;4206;48.634;9.516;2023-02-11T15:11:11;15.27;;;9.00;;
8337;SDS011;4206;48.634;9.516;2023-02-11T15:13:38;15.50;;;8.63;;
8337;SDS011;4206;48.634;9.516;2023-02-11T15:16:12;16.20;;;9.40;;
8337;SDS011;4206;48.634;9.516;2023-02-11T15:18:42;15.50;;;9.40;;
8337;SDS011;4206;48.634;9.516;2023-02-11T15:21:18;14.73;;;8.20;;
8337;SDS011;4206;48.634;9.516;2023-02-11T15:24:00;14.67;;;8.10;;
8337;SDS011;4206;48.634;9.516;2023-02-11T15:26:30;16.63;;;8.87;;
8337;SDS011;4206;48.634;9.516;2023-02-11T15:28:56;13.17;;;9.10;;
8337;SDS011;4206;48.634;9.516;2023-02-11T15:31:22;14.60;;;8.03;;
8337;SDS011;4206;48.634;9.516;2023-02-11T15:33:50;11.50;;;7.47;;
8337;SDS011;4206;48.634;9.516;2023-02-11T15:36:17;12.70;;;7.43;;
8337;SDS011;4206;48.634;9.516;2023-02-11T15:38:45;11.03;;;6.47;;
8337;SDS011;4206;48.634;9.516;2023-02-11T15:41:35;12.77;;;7.00;;
8337;SDS011;4206;48.634;9.516;2023-02-11T15:44:01;12.67;;;6.20;;
8337;SDS011;4206;48.634;9.516;2023-02-11T15:46:31;15.53;;;7.97;;
8337;SDS011;4206;48.634;9.516;2023-02-11T15:49:01;12.77;;;6.70;;
8337;SDS011;4206;48.634;9.516;2023-02-11T15:51:28;14.83;;;7.30;;
8337;SDS011;4206;48.634;9.516;2023-02-11T15:54:01;13.77;;;6.60;;
8337;SDS011;4206;48.634;9.516;2023-02-11T15:56:30;12.10;;;7.00;;
8337;SDS011;4206;48.634;9.516;2023-02-11T15:59:08;19.73;;;11.00;;
8337;SDS011;4206;48.634;9.516;2023-02-11T16:01:40;14.40;;;8.13;;
8337;SDS011;4206;48.634;9.516;2023-02-11T16:04:12;12.03;;;7.53;;
8337;SDS011;4206;48.634;9.516;2023-02-11T16:06:41;12.20;;;7.20;;
8337;SDS011;4206;48.634;9.516;2023-02-11T16:11:55;15.33;;;8.87;;
8337;SDS011;4206;48.634;9.516;2023-02-11T16:17:12;15.00;;;9.00;;
8337;SDS011;4206;48.634;9.516;2023-02-11T16:19:46;18.07;;;8.40;;
8337;SDS011;4206;48.634;9.516;2023-02-11T16:22:15;14.97;;;8.83;;
8337;SDS011;4206;48.634;9.516;2023-02-11T16:24:44;15.27;;;9.40;;
8337;SDS011;4206;48.634;9.516;2023-02-11T16:27:27;16.63;;;9.40;;
8337;SDS011;4206;48.634;9.516;2023-02-11T16:29:58;17.20;;;10.27;;
8337;SDS011;4206;48.634;9.516;2023-02-11T16:32:27;17.07;;;10.60;;
8337;SDS011;4206;48.634;9.516;2023-02-11T16:34:55;18.07;;;10.03;;
8337;SDS011;4206;48.634;9.516;2023-02-11T16:37:22;20.63;;;10.57;;
8337;SDS011;4206;48.634;9.516;2023-02-11T16:39:49;20.07;;;11.20;;
8337;SDS011;4206;48.634;9.516;2023-02-11T16:42:17;20.87;;;10.43;;
8337;SDS011;4206;48.634;9.516;2023-02-11T16:44:43;24.80;;;12.73;;
8337;SDS011;4206;48.634;9.516;2023-02-11T16:47:13;24.20;;;11.90;;
8337;SDS011;4206;48.634;9.516;2023-02-11T16:49:46;20.03;;;11.43;;
8337;SDS011;4206;48.634;9.516;2023-02-11T16:52:13;19.80;;;12.30;;
8337;SDS011;4206;48.634;9.516;2023-02-11T16:54:40;21.93;;;12.53;;
8337;SDS011;4206;48.634;9.516;2023-02-11T16:57:12;24.70;;;12.27;;
8337;SDS011;4206;48.634;9.516;2023-02-11T16:59:40;22.80;;;11.60;;
8337;SDS011;4206;48.634;9.516;2023-02-11T17:02:09;20.37;;;10.90;;
8337;SDS011;4206;48.634;9.516;2023-02-11T17:04:54;23.40;;;11.53;;
8337;SDS011;4206;48.634;9.516;2023-02-11T17:07:21;18.43;;;10.53;;
8337;SDS011;4206;48.634;9.516;2023-02-11T17:09:47;21.53;;;11.23;;
8337;SDS011;4206;48.634;9.516;2023-02-11T17:12:13;23.40;;;12.67;;
8337;SDS011;4206;48.634;9.516;2023-02-11T17:14:39;19.40;;;11.60;;
8337;SDS011;4206;48.634;9.516;2023-02-11T17:17:04;19.77;;;11.60;;
8337;SDS011;4206;48.634;9.516;2023-02-11T17:19:30;26.10;;;12.70;;
8337;SDS011;4206;48.634;9.516;2023-02-11T17:21:56;26.03;;;13.13;;
8337;SDS011;4206;48.634;9.516;2023-02-11T17:24:21;28.00;;;13.50;;
8337;SDS011;4206;48.634;9.516;2023-02-11T17:26:48;20.43;;;12.37;;
8337;SDS011;4206;48.634;9.516;2023-02-11T17:29:15;26.07;;;13.13;;
8337;SDS011;4206;48.634;9.516;2023-02-11T17:31:42;20.50;;;12.60;;
8337;SDS011;4206;48.634;9.516;2023-02-11T17:34:08;21.63;;;11.47;;
8337;SDS011;4206;48.634;9.516;2023-02-11T17:36:34;18.10;;;11.63;;
8337;SDS011;4206;48.634;9.516;2023-02-11T17:39:00;21.03;;;11.53;;
8337;SDS011;4206;48.634;9.516;2023-02-11T17:41:27;20.20;;;12.30;;
8337;SDS011;4206;48.634;9.516;2023-02-11T17:43:56;20.23;;;11.17;;
8337;SDS011;4206;48.634;9.516;2023-02-11T17:46:22;18.80;;;11.10;;
8337;SDS011;4206;48.634;9.516;2023-02-11T17:48:48;19.50;;;11.00;;
8337;SDS011;4206;48.634;9.516;2023-02-11T17:51:21;26.20;;;12.47;;